Time;durP1;ratioP1;P1;durP2;ratioP2;P2;SDS_P1;SDS_P2;PMS_P1;PMS_P2;Temp;Humidity;BMP_temperature;BMP_pressure;BME280_temperature;BME280_humidity;BME280_pressure;Samples;Min_cycle;Max_cycle;Signal;HPM_P1;HPM_P2
2023/04/24 00:01:16;;;;;;;0.40;0.30;;;;;;;11.34;90.55;95306.41;5070910;28;20560;-62
2023/04/24 00:03:45;;;;;;;0.37;0.30;;;;;;;11.17;93.04;95308.63;5070990;28;20444;-60
2023/04/24 00:06:13;;;;;;;0.40;0.40;;;;;;;11.11;92.73;95309.72;5070578;28;20843;-60
2023/04/24 00:08:41;;;;;;;0.30;0.20;;;;;;;11.22;92.53;95300.66;5070947;28;20555;-60
2023/04/24 00:11:11;;;;;;;0.60;0.50;;;;;;;10.78;97.67;95302.41;5070395;28;20438;-60
2023/04/24 00:13:40;;;;;;;0.40;0.30;;;;;;;11.14;95.33;95287.16;5070842;28;20952;-60
2023/04/24 00:16:08;;;;;;;0.40;0.20;;;;;;;11.11;96.06;95291.16;5069846;28;20811;-60
2023/04/24 00:18:37;;;;;;;0.50;0.40;;;;;;;11.29;93.12;95281.78;5070571;28;20467;-60
2023/04/24 00:21:06;;;;;;;0.40;0.30;;;;;;;11.47;92.86;95295.22;5070414;28;20954;-60
2023/04/24 00:23:34;;;;;;;0.30;0.20;;;;;;;11.44;91.73;95285.13;5070627;28;20453;-59
2023/04/24 00:26:02;;;;;;;1.23;1.23;;;;;;;11.41;92.47;95285.69;5070575;28;20491;-60
2023/04/24 00:28:32;;;;;;;0.40;0.30;;;;;;;11.54;90.63;95284.28;5070767;28;20448;-60
2023/04/24 00:31:00;;;;;;;0.40;0.40;;;;;;;11.36;93.42;95292.88;5044886;28;20804;-60
2023/04/24 00:33:29;;;;;;;0.30;0.20;;;;;;;11.52;92.57;95286.41;5070883;28;20476;-60
2023/04/24 00:35:57;;;;;;;0.60;0.50;;;;;;;11.49;91.67;95290.41;5070060;28;20446;-60
2023/04/24 00:38:25;;;;;;;0.50;0.50;;;;;;;10.99;97.31;95276.63;5071062;28;20441;-60
2023/04/24 00:40:54;;;;;;;0.47;0.27;;;;;;;10.88;99.69;95286.47;5071059;28;20468;-60
2023/04/24 00:43:23;;;;;;;0.40;0.40;;;;;;;10.46;100.00;95272.84;5070516;28;20508;-61
2023/04/24 00:45:53;;;;;;;0.50;0.40;;;;;;;10.05;100.00;95282.66;5071152;28;20894;-60
2023/04/24 00:48:22;;;;;;;0.43;0.27;;;;;;;9.94;100.00;95284.53;5070821;28;20438;-60
2023/04/24 00:50:50;;;;;;;0.70;0.50;;;;;;;10.15;100.00;95270.25;5074090;28;20437;-60
2023/04/24 00:53:18;;;;;;;0.47;0.40;;;;;;;10.64;100.00;95275.72;5074538;28;20473;-60
2023/04/24 00:55:47;;;;;;;0.40;0.30;;;;;;;10.36;100.00;95225.16;5074110;28;20866;-60
2023/04/24 00:58:16;;;;;;;1.27;0.30;;;;;;;10.90;100.00;95279.06;5072742;28;20433;-61
2023/04/24 01:00:46;;;;;;;3.90;0.60;;;;;;;10.95;99.83;95276.38;5073448;28;20438;-61
2023/04/24 01:03:16;;;;;;;0.83;0.83;;;;;;;10.22;100.00;95287.72;5072752;28;20484;-61
2023/04/24 01:05:45;;;;;;;0.50;0.50;;;;;;;10.68;100.00;95286.53;5073196;28;20907;-60
2023/04/24 01:08:14;;;;;;;0.57;0.40;;;;;;;10.78;100.00;95273.25;5073101;28;20807;-61
2023/04/24 01:10:42;;;;;;;0.80;0.73;;;;;;;9.90;100.00;95277.38;5073652;28;20467;-61
2023/04/24 01:13:11;;;;;;;0.43;0.40;;;;;;;9.89;100.00;95281.88;5061356;28;20461;-61
2023/04/24 01:15:40;;;;;;;0.40;0.40;;;;;;;10.35;100.00;95271.28;5073319;28;20455;-61
2023/04/24 01:18:08;;;;;;;3.07;0.60;;;;;;;10.30;100.00;95277.38;5084163;28;20441;-61
2023/04/24 01:20:40;;;;;;;0.80;0.43;;;;;;;10.26;100.00;95278.97;5075402;28;20510;-62
2023/04/24 01:23:10;;;;;;;0.40;0.30;;;;;;;10.35;100.00;95266.00;5073508;28;20473;-62
2023/04/24 01:25:39;;;;;;;1.73;0.30;;;;;;;10.23;100.00;95273.41;5073424;28;20469;-62
2023/04/24 01:28:07;;;;;;;0.67;0.40;;;;;;;10.49;100.00;95267.00;5073668;28;20515;-62
2023/04/24 01:30:36;;;;;;;0.50;0.50;;;;;;;10.24;100.00;95267.06;5073010;28;20437;-61
2023/04/24 01:33:05;;;;;;;0.40;0.30;;;;;;;9.94;100.00;95276.59;5073842;28;20544;-62
2023/04/24 01:35:34;;;;;;;2.90;0.60;;;;;;;9.97;100.00;95264.66;5073273;28;21127;-61
2023/04/24 01:38:02;;;;;;;0.40;0.30;;;;;;;10.33;100.00;95266.25;5073166;28;20434;-61
2023/04/24 01:40:32;;;;;;;0.80;0.53;;;;;;;10.61;100.00;95276.25;5072904;28;20477;-61
2023/04/24 01:43:01;;;;;;;0.60;0.60;;;;;;;10.73;100.00;95265.31;5073085;28;20501;-61
2023/04/24 01:45:29;;;;;;;0.40;0.30;;;;;;;10.58;100.00;95265.38;5073159;28;20883;-61
2023/04/24 01:47:58;;;;;;;0.60;0.60;;;;;;;10.48;100.00;95266.19;5073583;28;20438;-61
2023/04/24 01:50:26;;;;;;;0.47;0.40;;;;;;;10.67;100.00;95271.72;5072833;28;20494;-61
2023/04/24 01:52:55;;;;;;;0.40;0.37;;;;;;;10.47;100.00;95277.09;5072563;28;20473;-61
2023/04/24 01:55:23;;;;;;;0.73;0.73;;;;;;;10.57;100.00;95269.91;5072851;28;20974;-61
2023/04/24 01:57:53;;;;;;;0.40;0.37;;;;;;;10.58;100.00;95271.47;5073192;28;20445;-60
2023/04/24 02:00:22;;;;;;;0.77;0.70;;;;;;;10.15;100.00;95280.03;5072844;28;20485;-60
2023/04/24 02:02:51;;;;;;;1.50;0.53;;;;;;;9.74;100.00;95270.53;5072437;28;20477;-61
2023/04/24 02:05:19;;;;;;;0.50;0.50;;;;;;;9.89;100.00;95275.81;5072364;28;20438;-61
2023/04/24 02:07:47;;;;;;;0.40;0.40;;;;;;;10.00;100.00;95275.53;5072502;28;20434;-61
2023/04/24 02:10:16;;;;;;;0.80;0.80;;;;;;;10.01;100.00;95271.84;5072470;28;20437;-60
2023/04/24 02:12:44;;;;;;;0.30;0.27;;;;;;;10.51;100.00;95267.53;5072559;28;20461;-61
2023/04/24 02:15:14;;;;;;;0.57;0.57;;;;;;;10.59;100.00;95259.03;5072094;28;20441;-60
2023/04/24 02:17:43;;;;;;;0.40;0.30;;;;;;;10.33;100.00;95263.59;5072257;28;20434;-61
2023/04/24 02:20:12;;;;;;;0.70;0.70;;;;;;;10.12;100.00;95259.38;5072160;28;21021;-61
2023/04/24 02:22:40;;;;;;;0.33;0.23;;;;;;;10.61;100.00;95254.25;5071616;28;20556;-61
2023/04/24 02:25:09;;;;;;;0.37;0.30;;;;;;;10.80;100.00;95244.63;5059526;28;20474;-61
2023/04/24 02:27:37;;;;;;;0.50;0.30;;;;;;;10.83;100.00;95241.41;5071558;28;20517;-61
2023/04/24 02:30:07;;;;;;;1.23;0.30;;;;;;;10.84;100.00;95246.47;5071658;28;20465;-61
2023/04/24 02:32:38;;;;;;;0.43;0.40;;;;;;;10.77;100.00;95223.97;5046025;28;20444;-61
2023/04/24 02:35:08;;;;;;;0.57;0.57;;;;;;;10.73;100.00;95226.34;5071527;28;20445;-61
2023/04/24 02:37:36;;;;;;;0.50;0.30;;;;;;;10.49;100.00;95227.25;5071859;28;20514;-61
2023/04/24 02:40:06;;;;;;;0.50;0.40;;;;;;;10.49;100.00;95184.84;5071655;28;20469;-60
2023/04/24 02:42:34;;;;;;;0.40;0.30;;;;;;;10.32;100.00;95218.84;5072303;28;20528;-60
2023/04/24 02:45:02;;;;;;;0.57;0.57;;;;;;;10.63;100.00;95221.09;5071647;28;20445;-60
2023/04/24 02:47:31;;;;;;;4.00;0.40;;;;;;;10.46;100.00;95233.88;5072295;28;20517;-61
2023/04/24 02:50:01;;;;;;;0.50;0.50;;;;;;;10.71;100.00;95233.00;5071601;28;20441;-61
2023/04/24 02:52:29;;;;;;;0.60;0.60;;;;;;;10.94;100.00;95227.06;5071474;28;20946;-61
2023/04/24 02:54:57;;;;;;;0.40;0.40;;;;;;;10.54;100.00;95221.94;5071386;28;20434;-61
2023/04/24 02:57:26;;;;;;;0.50;0.47;;;;;;;10.14;100.00;95154.78;5071777;28;20507;-61
2023/04/24 02:59:54;;;;;;;0.83;0.40;;;;;;;10.45;100.00;95239.47;5071562;28;20434;-61
2023/04/24 03:02:22;;;;;;;0.60;0.60;;;;;;;9.28;100.00;95245.88;5071588;28;20472;-61
2023/04/24 03:04:51;;;;;;;4.20;1.13;;;;;;;9.00;100.00;95247.13;5071321;28;20857;-61
2023/04/24 03:07:21;;;;;;;0.67;0.67;;;;;;;8.84;100.00;95241.00;5071471;28;20480;-61
2023/04/24 03:09:49;;;;;;;0.83;0.80;;;;;;;8.41;100.00;95230.81;5071599;28;20473;-61
2023/04/24 03:12:17;;;;;;;1.20;1.10;;;;;;;9.00;100.00;95251.63;5071069;28;20481;-61
2023/04/24 03:14:46;;;;;;;0.90;0.90;;;;;;;9.16;100.00;95251.38;5046238;28;20503;-61
2023/04/24 03:17:14;;;;;;;0.60;0.60;;;;;;;8.82;100.00;95184.97;5071229;28;20485;-61
2023/04/24 03:19:42;;;;;;;0.60;0.57;;;;;;;9.03;100.00;95158.59;5071601;28;20974;-61
2023/04/24 03:22:12;;;;;;;0.40;0.37;;;;;;;9.61;100.00;95197.75;5071484;28;20476;-61
2023/04/24 03:24:41;;;;;;;1.13;0.53;;;;;;;9.70;100.00;95225.25;5070714;28;20524;-60
2023/04/24 03:27:10;;;;;;;0.80;0.60;;;;;;;9.72;100.00;95185.28;5071025;28;20446;-60
2023/04/24 03:29:38;;;;;;;0.40;0.30;;;;;;;9.69;100.00;95222.88;5071217;28;20461;-60
2023/04/24 03:32:06;;;;;;;0.40;0.30;;;;;;;9.75;100.00;95229.75;5071028;28;21016;-60
2023/04/24 03:34:34;;;;;;;0.40;0.30;;;;;;;10.00;100.00;95222.56;5071136;28;20471;-60
2023/04/24 03:37:03;;;;;;;0.93;0.50;;;;;;;9.85;100.00;95169.66;5070914;28;20436;-60
2023/04/24 03:39:31;;;;;;;0.87;0.70;;;;;;;10.14;100.00;95223.63;5071156;28;20938;-60
2023/04/24 03:42:01;;;;;;;0.40;0.30;;;;;;;10.14;100.00;95220.97;5070967;28;20461;-60
2023/04/24 03:44:29;;;;;;;0.40;0.30;;;;;;;9.93;100.00;95235.31;5070902;28;20509;-60
2023/04/24 03:46:59;;;;;;;0.53;0.53;;;;;;;9.97;100.00;95232.91;5071231;28;20430;-60
2023/04/24 03:49:27;;;;;;;0.50;0.50;;;;;;;10.12;100.00;95224.97;5071535;28;20448;-62
2023/04/24 03:51:55;;;;;;;3.70;0.60;;;;;;;9.99;100.00;95228.91;5070699;28;20880;-61
2023/04/24 03:54:24;;;;;;;0.40;0.30;;;;;;;10.02;100.00;95233.69;5070826;28;20536;-61
2023/04/24 03:56:52;;;;;;;0.60;0.60;;;;;;;9.99;100.00;95234.22;5070643;28;20441;-60
2023/04/24 03:59:22;;;;;;;0.50;0.47;;;;;;;10.06;100.00;95220.72;5071357;28;20445;-61
2023/04/24 04:01:50;;;;;;;1.03;1.03;;;;;;;10.29;100.00;95229.97;5045286;28;20445;-61
2023/04/24 04:04:18;;;;;;;0.50;0.40;;;;;;;9.99;100.00;95228.91;5071032;28;20842;-61
2023/04/24 04:06:47;;;;;;;0.83;0.83;;;;;;;10.22;100.00;95234.75;5071164;28;20449;-61
2023/04/24 04:09:16;;;;;;;0.97;0.97;;;;;;;10.16;100.00;95229.47;5070648;28;20469;-61
2023/04/24 04:11:44;;;;;;;0.40;0.30;;;;;;;10.15;100.00;95233.16;5071051;28;20442;-61
2023/04/24 04:14:12;;;;;;;1.13;1.10;;;;;;;9.67;100.00;95241.66;5071291;28;20447;-60
2023/04/24 04:16:42;;;;;;;0.60;0.60;;;;;;;9.39;100.00;95244.81;5070853;28;20434;-61
2023/04/24 04:19:11;;;;;;;0.50;0.50;;;;;;;9.24;100.00;95245.59;5070888;28;20448;-62
2023/04/24 04:21:39;;;;;;;0.40;0.30;;;;;;;9.56;100.00;95248.03;5070622;28;20529;-60
2023/04/24 04:24:09;;;;;;;0.50;0.40;;;;;;;9.92;100.00;95249.59;5072016;28;20504;-60
2023/04/24 04:26:37;;;;;;;0.60;0.60;;;;;;;9.91;100.00;95248.00;5074433;28;20455;-61
2023/04/24 04:29:06;;;;;;;1.13;0.40;;;;;;;9.70;100.00;95222.59;5074176;28;20923;-61
2023/04/24 04:31:34;;;;;;;0.53;0.40;;;;;;;9.99;100.00;95242.16;5074372;28;20468;-60
2023/04/24 04:34:04;;;;;;;0.40;0.40;;;;;;;10.29;100.00;95251.16;5074392;28;20445;-60
2023/04/24 04:36:36;;;;;;;1.03;0.73;;;;;;;10.37;100.00;95248.75;5074620;28;20437;-60
2023/04/24 04:39:05;;;;;;;1.47;1.40;;;;;;;10.13;100.00;95253.84;5074074;28;20448;-60
2023/04/24 04:41:34;;;;;;;0.60;0.50;;;;;;;10.18;100.00;95247.72;5073788;28;20520;-61
2023/04/24 04:44:04;;;;;;;0.80;0.80;;;;;;;10.63;100.00;95241.50;5073948;28;20493;-61
2023/04/24 04:46:34;;;;;;;0.70;0.70;;;;;;;10.54;100.00;95251.09;5073179;28;20805;-61
2023/04/24 04:49:04;;;;;;;0.50;0.40;;;;;;;9.95;100.00;95212.00;5073732;28;20537;-61
2023/04/24 04:51:32;;;;;;;0.50;0.43;;;;;;;10.38;100.00;95250.34;5073326;28;21010;-62
2023/04/24 04:54:00;;;;;;;0.40;0.30;;;;;;;10.58;100.00;95249.47;5074082;28;20438;-63
2023/04/24 04:56:29;;;;;;;1.03;0.57;;;;;;;10.62;100.00;95250.53;5073257;28;20447;-63
2023/04/24 04:58:57;;;;;;;0.73;0.73;;;;;;;10.46;100.00;95246.34;5073651;28;20449;-64
2023/04/24 05:01:27;;;;;;;0.40;0.30;;;;;;;10.67;100.00;95247.88;5073922;28;20453;-64
2023/04/24 05:03:55;;;;;;;0.87;0.87;;;;;;;10.86;100.00;95235.56;5063341;28;20903;-63
2023/04/24 05:06:25;;;;;;;1.63;0.50;;;;;;;10.70;100.00;95247.34;5072203;28;20437;-63
2023/04/24 05:08:56;;;;;;;0.47;0.30;;;;;;;10.77;100.00;95240.69;5074035;28;20445;-63
2023/04/24 05:11:25;;;;;;;0.60;0.57;;;;;;;11.25;100.00;95247.06;5073902;28;20443;-63
2023/04/24 05:13:53;;;;;;;1.10;1.10;;;;;;;11.07;100.00;95246.88;5071538;28;20441;-64
2023/04/24 05:16:22;;;;;;;0.40;0.20;;;;;;;11.39;100.00;95248.00;5045387;28;20433;-63
2023/04/24 05:18:50;;;;;;;2.30;1.80;;;;;;;11.13;100.00;95235.19;5071524;28;20476;-62
2023/04/24 05:21:18;;;;;;;3.10;1.57;;;;;;;10.75;100.00;95245.44;5071616;28;20453;-62
2023/04/24 05:23:48;;;;;;;1.50;1.40;;;;;;;10.55;100.00;95250.81;5071626;28;20511;-62
2023/04/24 05:26:17;;;;;;;3.80;2.10;;;;;;;10.55;100.00;95244.75;5071788;28;20477;-62
2023/04/24 05:28:45;;;;;;;0.77;0.77;;;;;;;10.41;100.00;95249.00;5073063;28;20433;-62
2023/04/24 05:31:14;;;;;;;0.70;0.60;;;;;;;10.52;100.00;95232.81;5073554;28;20433;-62
2023/04/24 05:33:42;;;;;;;0.80;0.80;;;;;;;10.15;100.00;95242.97;5073309;28;21011;-62
2023/04/24 05:36:10;;;;;;;1.00;1.00;;;;;;;10.11;100.00;95253.28;5072717;28;20446;-62
2023/04/24 05:38:39;;;;;;;2.10;2.00;;;;;;;9.90;100.00;95241.13;5073178;28;20456;-63
2023/04/24 05:41:09;;;;;;;0.50;0.50;;;;;;;9.73;100.00;95250.41;5073123;28;20497;-62
2023/04/24 05:43:37;;;;;;;2.20;0.50;;;;;;;9.34;100.00;95258.81;5072986;28;20462;-63
2023/04/24 05:46:05;;;;;;;0.60;0.60;;;;;;;9.15;100.00;95259.59;5073549;28;20481;-63
2023/04/24 05:48:34;;;;;;;0.67;0.60;;;;;;;9.89;100.00;95260.69;5072391;28;20452;-63
2023/04/24 05:51:02;;;;;;;0.70;0.70;;;;;;;10.57;100.00;95253.22;5073071;28;20437;-62
2023/04/24 05:53:31;;;;;;;3.70;0.60;;;;;;;10.52;100.00;95261.97;5072690;28;20521;-62
2023/04/24 05:55:59;;;;;;;1.23;0.60;;;;;;;11.19;100.00;95253.44;5073164;28;20446;-62
2023/04/24 05:58:29;;;;;;;0.50;0.47;;;;;;;10.50;100.00;95223.56;5073285;28;20973;-61
2023/04/24 06:00:58;;;;;;;1.23;1.13;;;;;;;10.83;100.00;95252.03;5072920;28;20442;-61
2023/04/24 06:03:27;;;;;;;0.30;0.30;;;;;;;11.26;100.00;95250.47;5072943;28;20934;-61
2023/04/24 06:05:55;;;;;;;0.57;0.40;;;;;;;12.27;100.00;95245.19;5072364;28;20535;-62
2023/04/24 06:08:23;;;;;;;0.60;0.40;;;;;;;12.50;95.73;95236.44;5072947;28;20430;-63
2023/04/24 06:10:52;;;;;;;0.40;0.30;;;;;;;12.81;94.36;95249.38;5072785;28;20462;-62
2023/04/24 06:13:20;;;;;;;0.60;0.50;;;;;;;12.62;92.07;95206.81;5072575;28;20442;-63
2023/04/24 06:15:50;;;;;;;0.90;0.60;;;;;;;12.77;90.31;95234.00;5072517;28;20445;-63
2023/04/24 06:18:18;;;;;;;0.80;0.73;;;;;;;12.20;92.14;95204.88;5072347;28;20524;-64
2023/04/24 06:20:47;;;;;;;0.70;0.53;;;;;;;13.65;87.26;95251.22;5072576;28;20469;-62
2023/04/24 06:23:16;;;;;;;0.50;0.50;;;;;;;13.79;82.95;95241.38;5072033;28;20488;-62
2023/04/24 06:25:44;;;;;;;0.50;0.30;;;;;;;13.77;83.08;95232.91;5067718;28;20513;-63
2023/04/24 06:28:14;;;;;;;0.50;0.40;;;;;;;14.26;82.99;95243.00;5063117;28;20437;-63
2023/04/24 06:30:43;;;;;;;0.40;0.30;;;;;;;14.60;79.85;95222.94;5072355;28;20488;-64
2023/04/24 06:33:13;;;;;;;0.40;0.30;;;;;;;14.53;77.36;95221.75;5072080;28;20514;-64
2023/04/24 06:35:46;;;;;;;1.23;1.23;;;;;;;15.38;75.27;95216.50;5072128;28;20456;-65
2023/04/24 06:38:15;;;;;;;0.70;0.70;;;;;;;15.47;74.23;95213.94;5071952;28;20457;-64
2023/04/24 06:40:44;;;;;;;0.40;0.30;;;;;;;15.35;73.86;95141.56;5070899;28;20962;-64
2023/04/24 06:43:13;;;;;;;2.73;0.50;;;;;;;15.41;72.96;95156.34;5072222;28;20533;-62
2023/04/24 06:45:43;;;;;;;0.90;0.90;;;;;;;16.23;71.53;95202.19;5071422;28;20564;-62
2023/04/24 06:48:13;;;;;;;1.10;1.10;;;;;;;16.24;68.26;95169.00;5071153;28;20445;-62
2023/04/24 06:50:41;;;;;;;0.50;0.43;;;;;;;16.48;66.87;95193.50;5072089;28;20441;-64
2023/04/24 06:53:12;;;;;;;0.40;0.30;;;;;;;17.28;65.28;95203.03;5071928;28;20442;-63
2023/04/24 06:55:41;;;;;;;1.57;0.80;;;;;;;17.64;64.32;95198.97;5071908;28;20437;-62
2023/04/24 06:58:09;;;;;;;0.50;0.50;;;;;;;17.37;64.72;95191.22;5071778;28;20470;-62
2023/04/24 07:00:38;;;;;;;0.87;0.87;;;;;;;16.95;66.53;95194.63;5072136;28;20473;-64
2023/04/24 07:03:06;;;;;;;0.73;0.50;;;;;;;17.28;65.63;95195.00;5071490;28;20469;-65
2023/04/24 07:05:38;;;;;;;1.17;1.07;;;;;;;17.63;63.01;95151.81;5071169;28;20469;-65
2023/04/24 07:08:06;;;;;;;0.50;0.40;;;;;;;17.81;63.18;95189.34;5070960;28;21172;-62
2023/04/24 07:10:35;;;;;;;0.90;0.90;;;;;;;17.83;62.18;95168.34;5071978;28;20498;-61
2023/04/24 07:13:03;;;;;;;0.63;0.53;;;;;;;17.30;62.69;95193.56;5071843;28;20438;-62
2023/04/24 07:15:32;;;;;;;0.50;0.40;;;;;;;17.28;63.33;95193.09;5071046;28;20727;-62
2023/04/24 07:18:00;;;;;;;1.43;1.40;;;;;;;16.03;64.15;95103.78;5071461;28;20801;-62
2023/04/24 07:20:33;;;;;;;0.67;0.60;;;;;;;16.65;63.74;95168.69;5070922;28;20442;-61
2023/04/24 07:23:03;;;;;;;0.73;0.60;;;;;;;16.65;62.87;95141.94;5071739;28;20429;-61
2023/04/24 07:25:31;;;;;;;0.67;0.67;;;;;;;16.91;65.21;95182.94;5071066;28;21045;-63
2023/04/24 07:28:00;;;;;;;0.67;0.57;;;;;;;16.66;66.82;95183.66;5070820;28;20496;-63
2023/04/24 07:30:29;;;;;;;0.50;0.47;;;;;;;15.81;65.62;94993.16;5071212;28;20453;-64
2023/04/24 07:32:57;;;;;;;0.50;0.40;;;;;;;17.64;64.69;95182.09;5070167;28;20532;-65
2023/04/24 07:35:26;;;;;;;0.50;0.50;;;;;;;17.63;64.30;95189.34;5070888;28;20824;-66
2023/04/24 07:37:55;;;;;;;1.27;0.53;;;;;;;17.39;63.88;95138.09;5070605;28;20446;-64
2023/04/24 07:40:25;;;;;;;0.70;0.70;;;;;;;18.15;61.35;95186.59;5057784;28;20445;-62
2023/04/24 07:42:53;;;;;;;0.57;0.43;;;;;;;18.71;60.27;95180.09;5071380;28;20477;-61
2023/04/24 07:45:22;;;;;;;0.70;0.70;;;;;;;18.30;60.88;95169.97;5071059;28;20438;-62
2023/04/24 07:47:51;;;;;;;0.60;0.50;;;;;;;19.02;60.05;95170.59;5071424;28;20970;-64
2023/04/24 07:50:20;;;;;;;0.40;0.20;;;;;;;19.77;57.99;95168.00;5070906;28;20499;-65
2023/04/24 07:52:49;;;;;;;2.20;0.50;;;;;;;20.34;54.26;95080.03;5071297;28;21025;-65
2023/04/24 07:55:17;;;;;;;0.40;0.40;;;;;;;21.03;54.06;95152.63;5044827;28;20442;-64
2023/04/24 07:57:51;;;;;;;1.37;0.50;;;;;;;21.93;51.06;95166.50;5069906;28;20529;-64
2023/04/24 08:00:19;;;;;;;0.50;0.50;;;;;;;20.74;52.69;95167.13;5062804;28;20517;-65
2023/04/24 08:02:48;;;;;;;0.50;0.50;;;;;;;20.75;51.70;95106.75;5074046;28;20522;-65
2023/04/24 08:05:17;;;;;;;0.50;0.50;;;;;;;21.86;50.89;95162.78;5074539;28;20441;-66
2023/04/24 08:07:48;;;;;;;0.60;0.60;;;;;;;22.28;49.28;95153.13;5073875;28;20510;-68
2023/04/24 08:10:17;;;;;;;1.10;0.70;;;;;;;22.10;49.89;95155.38;5074707;28;20441;-71
2023/04/24 08:12:45;;;;;;;0.40;0.37;;;;;;;22.28;48.92;95165.84;5075625;28;20488;-73
2023/04/24 08:15:15;;;;;;;1.57;0.90;;;;;;;21.07;49.76;95069.22;5075846;28;20528;-74
2023/04/24 08:17:43;;;;;;;0.50;0.40;;;;;;;22.37;49.60;95151.03;5074444;28;20437;-74
2023/04/24 08:20:14;;;;;;;5.20;0.83;;;;;;;20.70;51.32;95151.97;5074981;28;20442;-75
2023/04/24 08:22:43;;;;;;;0.67;0.67;;;;;;;20.27;53.07;95091.38;5074259;28;20964;-77
2023/04/24 08:25:12;;;;;;;0.40;0.30;;;;;;;20.96;53.11;95147.03;5075257;28;20502;-79
2023/04/24 08:27:40;;;;;;;1.10;1.00;;;;;;;20.41;51.66;95107.22;5074632;28;20544;-73
2023/04/24 08:30:09;;;;;;;0.50;0.30;;;;;;;21.09;52.44;95142.44;5074592;28;20484;-69
2023/04/24 08:32:39;;;;;;;0.70;0.67;;;;;;;21.57;52.22;95136.13;5074497;28;20433;-69
2023/04/24 08:35:09;;;;;;;0.63;0.40;;;;;;;21.61;50.67;95139.69;5074003;28;20437;-76
2023/04/24 08:37:38;;;;;;;5.50;0.50;;;;;;;21.13;50.91;95038.22;5073953;28;20466;-69
2023/04/24 08:40:12;;;;;;;0.40;0.30;;;;;;;21.94;50.17;95134.88;5073584;28;20503;-66
2023/04/24 08:42:43;;;;;;;0.40;0.30;;;;;;;22.24;49.26;95117.16;5074262;28;20441;-67
2023/04/24 08:45:13;;;;;;;0.70;0.50;;;;;;;22.50;49.93;95113.94;5074053;28;20433;-67
2023/04/24 08:47:44;;;;;;;0.40;0.30;;;;;;;23.04;47.49;95106.75;5073923;28;20524;-67
2023/04/24 08:50:12;;;;;;;0.50;0.30;;;;;;;22.18;48.15;95045.66;5073509;28;20437;-70
2023/04/24 08:52:43;;;;;;;0.57;0.50;;;;;;;23.27;47.25;95099.53;5073258;28;20445;-70
2023/04/24 08:55:11;;;;;;;0.60;0.60;;;;;;;22.42;50.22;95099.47;5073281;28;20979;-71
2023/04/24 08:57:41;;;;;;;0.67;0.67;;;;;;;22.32;48.37;95096.50;5073455;28;20437;-69
2023/04/24 09:00:10;;;;;;;1.03;0.73;;;;;;;22.23;48.56;95095.91;5074498;28;20434;-69
2023/04/24 09:02:44;;;;;;;0.70;0.60;;;;;;;23.02;47.89;95086.63;5074235;28;20446;-66
2023/04/24 09:05:14;;;;;;;0.80;0.80;;;;;;;22.40;49.63;95018.03;5073951;28;20472;-65
2023/04/24 09:07:47;;;;;;;0.50;0.40;;;;;;;23.07;48.84;95024.91;5074184;28;20519;-64
2023/04/24 09:10:16;;;;;;;0.73;0.40;;;;;;;24.39;46.10;95012.66;5073453;28;20433;-65
2023/04/24 09:12:45;;;;;;;0.53;0.53;;;;;;;25.51;44.13;95066.94;5073817;28;20444;-68
2023/04/24 09:15:14;;;;;;;0.83;0.80;;;;;;;24.73;44.51;95065.06;5073788;28;20532;-66
2023/04/24 09:17:44;;;;;;;1.80;1.00;;;;;;;25.02;45.01;95061.66;5073372;28;20528;-64
2023/04/24 09:20:12;;;;;;;1.10;0.80;;;;;;;24.83;44.60;95062.53;5073543;28;20445;-64
2023/04/24 09:22:41;;;;;;;0.90;0.70;;;;;;;23.80;45.78;95061.94;5073393;28;20727;-64
2023/04/24 09:25:12;;;;;;;0.50;0.40;;;;;;;24.99;44.72;95052.31;5073350;28;20469;-65
2023/04/24 09:27:44;;;;;;;0.93;0.83;;;;;;;24.32;45.37;95045.84;5073247;28;20552;-64
2023/04/24 09:30:14;;;;;;;0.87;0.80;;;;;;;22.30;47.76;95006.97;5072901;28;20445;-68
2023/04/24 09:32:44;;;;;;;0.70;0.70;;;;;;;23.21;47.37;95048.78;5073158;28;20441;-68
2023/04/24 09:35:14;;;;;;;1.00;0.90;;;;;;;24.07;45.85;95033.00;5073505;28;20441;-67
2023/04/24 09:37:44;;;;;;;0.80;0.53;;;;;;;24.20;44.65;95027.09;5064607;28;21219;-67
2023/04/24 09:40:14;;;;;;;1.93;1.80;;;;;;;22.81;47.08;95029.38;5069058;28;20528;-70
2023/04/24 09:42:46;;;;;;;0.63;0.50;;;;;;;23.11;47.19;95033.13;5073280;28;20492;-70
2023/04/24 09:45:14;;;;;;;0.97;0.97;;;;;;;22.67;48.32;95033.34;5073196;28;20481;-60
2023/04/24 09:47:44;;;;;;;0.50;0.50;;;;;;;23.95;46.58;95028.56;5073514;28;20840;-67
2023/04/24 09:50:17;;;;;;;0.40;0.40;;;;;;;25.00;45.94;95021.31;5072934;28;20953;-68
2023/04/24 09:52:58;;;;;;;0.40;0.40;;;;;;;24.03;43.90;94924.69;5073310;28;20468;-66
2023/04/24 09:55:26;;;;;;;0.53;0.50;;;;;;;22.51;47.69;95032.56;5073096;28;20429;-71
2023/04/24 09:57:56;;;;;;;1.63;0.60;;;;;;;22.66;48.57;95014.78;5072887;28;20929;-72
2023/04/24 10:00:26;;;;;;;0.70;0.50;;;;;;;22.18;48.48;95015.97;5072529;28;20442;-73
2023/04/24 10:03:00;;;;;;;1.23;1.20;;;;;;;22.45;47.72;94969.16;5058971;28;20436;-73
2023/04/24 10:05:32;;;;;;;0.70;0.70;;;;;;;22.83;47.33;95008.19;5072881;28;20440;-73
2023/04/24 10:08:05;;;;;;;0.50;0.50;;;;;;;24.69;45.01;94996.47;5072361;28;20477;-71
2023/04/24 10:10:35;;;;;;;1.73;1.63;;;;;;;24.16;43.94;94992.97;5072690;28;20524;-67
2023/04/24 10:13:04;;;;;;;0.40;0.30;;;;;;;24.72;43.01;94988.38;5072595;28;20437;-66
2023/04/24 10:15:33;;;;;;;0.40;0.30;;;;;;;26.25;42.15;94983.53;5059644;28;20500;-65
2023/04/24 10:18:06;;;;;;;0.60;0.60;;;;;;;25.96;40.77;94979.00;5059785;28;20453;-66
2023/04/24 10:20:36;;;;;;;0.40;0.40;;;;;;;26.41;40.59;94973.19;5072320;28;20469;-65
2023/04/24 10:23:06;;;;;;;0.50;0.33;;;;;;;27.27;39.03;94959.66;5072306;28;20455;-65
2023/04/24 10:25:37;;;;;;;0.40;0.30;;;;;;;27.82;39.47;94959.41;5072104;28;20469;-65
2023/04/24 10:28:06;;;;;;;0.80;0.80;;;;;;;26.84;38.95;94898.84;5072031;28;20508;-65
2023/04/24 10:30:38;;;;;;;1.00;0.83;;;;;;;27.02;38.61;94962.28;5073067;28;20440;-64
2023/04/24 10:33:09;;;;;;;0.87;0.87;;;;;;;25.19;40.72;94968.88;5072242;28;20527;-65
2023/04/24 10:35:40;;;;;;;1.10;0.80;;;;;;;25.88;40.27;94961.88;5070750;28;20441;-64
2023/04/24 10:38:13;;;;;;;0.73;0.60;;;;;;;27.97;38.47;94950.88;5064858;28;20434;-64
2023/04/24 10:40:41;;;;;;;1.00;1.00;;;;;;;26.06;39.23;94946.47;5071681;28;20453;-66
2023/04/24 10:43:11;;;;;;;0.70;0.70;;;;;;;25.65;39.49;94939.53;5070915;28;20962;-66
2023/04/24 10:45:40;;;;;;;0.70;0.70;;;;;;;24.47;41.87;94908.69;5071494;28;20433;-68
2023/04/24 10:48:13;;;;;;;0.77;0.40;;;;;;;26.52;39.69;94940.59;5070698;28;21033;-67
2023/04/24 10:50:47;;;;;;;0.70;0.70;;;;;;;26.63;39.91;94928.66;5071712;28;20859;-66
2023/04/24 10:53:18;;;;;;;0.80;0.80;;;;;;;25.14;40.99;94945.59;5071576;28;21013;-66
2023/04/24 10:55:48;;;;;;;0.53;0.53;;;;;;;26.24;39.93;94920.25;5071566;28;20628;-65
2023/04/24 10:58:17;;;;;;;0.50;0.50;;;;;;;25.10;40.27;94909.50;5071590;28;20437;-66
2023/04/24 11:00:57;;;;;;;0.50;0.50;;;;;;;26.07;41.70;94914.66;5071800;28;20469;-66
2023/04/24 11:03:29;;;;;;;1.47;1.37;;;;;;;26.59;38.73;94913.50;5071619;28;20445;-65
2023/04/24 11:06:00;;;;;;;0.97;0.40;;;;;;;27.38;38.96;94927.81;5071309;28;20449;-65
2023/04/24 11:08:31;;;;;;;0.40;0.30;;;;;;;26.97;37.09;94910.16;5071563;28;20523;-64
2023/04/24 11:11:03;;;;;;;0.40;0.30;;;;;;;28.81;36.25;94906.41;5071634;28;20452;-63
2023/04/24 11:14:08;;;;;;;1.57;1.30;;;;;;;27.61;38.00;94892.88;5071557;28;20448;-64
2023/04/24 11:16:44;;;;;;;2.43;0.90;;;;;;;26.44;38.72;94886.22;5018711;28;20435;-64
2023/04/24 11:19:23;;;;;;;0.60;0.50;;;;;;;24.64;39.26;94902.72;5028988;28;20443;-64
2023/04/24 11:21:59;;;;;;;0.80;0.80;;;;;;;25.10;39.53;94890.50;5054721;28;20523;-65
2023/04/24 11:24:32;;;;;;;0.87;0.40;;;;;;;25.80;37.52;94819.06;5071419;28;20849;-64
2023/04/24 11:27:14;;;;;;;7.83;0.60;;;;;;;27.08;35.63;94870.97;5070534;28;20495;-64
2023/04/24 11:29:45;;;;;;;3.53;0.50;;;;;;;28.75;34.38;94877.97;5070849;28;20443;-64
2023/04/24 11:32:26;;;;;;;0.40;0.30;;;;;;;28.31;32.75;94874.94;5070785;28;20437;-64
2023/04/24 11:34:57;;;;;;;0.43;0.43;;;;;;;28.39;34.55;94860.13;5071322;28;20872;-63
2023/04/24 11:37:27;;;;;;;0.60;0.60;;;;;;;27.29;31.91;94861.31;5045067;28;20532;-63
2023/04/24 11:39:59;;;;;;;0.40;0.30;;;;;;;28.05;30.73;94857.09;5070638;28;20911;-63
2023/04/24 11:42:29;;;;;;;0.40;0.30;;;;;;;27.52;32.43;94857.09;5070899;28;20480;-64